Time;durP1;ratioP1;P1;durP2;ratioP2;P2;SDS_P1;SDS_P2;PMS_P1;PMS_P2;Temp;Humidity;BMP_temperature;BMP_pressure;BME280_temperature;BME280_humidity;BME280_pressure;Samples;Min_cycle;Max_cycle;Signal;HPM_P1;HPM_P2
2022/08/08 00:00:59;;;;;;;2.30;2.10;;;28.20;96.70;;;;;;4954149;28;20061;-83
2022/08/08 00:03:48;;;;;;;2.47;2.20;;;28.10;96.70;;;;;;4949100;28;20043;-83
2022/08/08 00:06:32;;;;;;;3.28;2.08;;;28.00;96.70;;;;;;4954782;28;20053;-84
2022/08/08 00:09:09;;;;;;;2.50;2.30;;;28.00;96.70;;;;;;4953958;28;20051;-85
2022/08/08 00:11:44;;;;;;;2.97;2.10;;;28.00;96.70;;;;;;4959450;28;20039;-84
2022/08/08 00:14:44;;;;;;;2.67;2.33;;;28.00;96.70;;;;;;4952921;28;20485;-84
2022/08/08 00:17:34;;;;;;;3.92;2.28;;;28.00;96.70;;;;;;4943211;28;20070;-85
2022/08/08 00:20:32;;;;;;;2.28;2.08;;;28.00;96.70;;;;;;4951993;28;20052;-84
2022/08/08 00:23:07;;;;;;;3.95;2.60;;;28.10;96.70;;;;;;4959860;28;20181;-84
2022/08/08 00:25:40;;;;;;;3.67;2.80;;;28.00;96.70;;;;;;4950166;28;20054;-85
2022/08/08 00:28:23;;;;;;;3.88;3.40;;;28.00;96.70;;;;;;4952148;28;20417;-84
2022/08/08 00:31:14;;;;;;;4.53;3.42;;;27.90;96.70;;;;;;4944497;28;20816;-84
2022/08/08 00:37:21;;;;;;;4.15;3.67;;;27.80;96.70;;;;;;4936238;28;20138;-84
2022/08/08 00:40:43;;;;;;;4.25;3.13;;;27.90;96.70;;;;;;4940356;28;20051;-84
2022/08/08 00:44:18;;;;;;;4.35;3.75;;;27.90;96.70;;;;;;4959148;28;20149;-84
2022/08/08 00:47:19;;;;;;;3.88;3.55;;;27.90;96.70;;;;;;4919478;28;20066;-84
2022/08/08 00:50:28;;;;;;;3.47;3.17;;;27.80;96.70;;;;;;4943673;28;20062;-86
2022/08/08 00:53:08;;;;;;;3.53;3.20;;;27.70;96.70;;;;;;4942348;28;20501;-83
2022/08/08 00:56:28;;;;;;;4.93;3.70;;;27.80;96.70;;;;;;4941241;28;20047;-85
2022/08/08 01:00:03;;;;;;;3.70;3.17;;;27.80;96.70;;;;;;4942396;29;21396;-84
2022/08/08 01:03:06;;;;;;;3.53;3.22;;;27.90;96.70;;;;;;4937414;28;20055;-83
2022/08/08 01:06:29;;;;;;;9.65;4.05;;;28.00;96.70;;;;;;4942344;28;20084;-84
2022/08/08 01:09:30;;;;;;;3.88;3.50;;;27.90;96.70;;;;;;4957080;28;20062;-84
2022/08/08 01:12:40;;;;;;;4.22;3.40;;;27.90;96.70;;;;;;4936472;28;20058;-84
2022/08/08 01:15:46;;;;;;;3.90;3.35;;;27.80;96.70;;;;;;4948736;28;20287;-88
2022/08/08 01:18:57;;;;;;;3.97;3.35;;;27.60;96.70;;;;;;4943933;28;20058;-89
2022/08/08 01:22:01;;;;;;;;;;;27.80;96.70;;;;;;4956950;28;20051;-89
2022/08/08 01:25:17;;;;;;;3.60;3.30;;;27.90;96.70;;;;;;4963470;28;19989;-89
2022/08/08 01:28:16;;;;;;;3.72;3.42;;;27.90;96.70;;;;;;4943662;28;20074;-89
2022/08/08 01:31:36;;;;;;;6.15;3.58;;;27.80;96.70;;;;;;4935593;29;21384;-89
2022/08/08 01:34:54;;;;;;;6.57;3.78;;;27.80;96.70;;;;;;4935959;29;20055;-88
2022/08/08 01:38:00;;;;;;;4.47;3.58;;;27.40;96.70;;;;;;4963824;28;20516;-88
2022/08/08 01:40:47;;;;;;;4.22;3.63;;;27.40;96.70;;;;;;4963437;28;20255;-84
2022/08/08 01:43:30;;;;;;;4.70;3.80;;;27.50;96.70;;;;;;4961146;28;20056;-84
2022/08/08 01:46:29;;;;;;;5.50;3.92;;;27.40;96.70;;;;;;4975560;28;20066;-83
2022/08/08 01:49:07;;;;;;;4.32;3.60;;;27.50;96.70;;;;;;4975684;28;20055;-84
2022/08/08 01:51:57;;;;;;;5.30;3.67;;;27.60;96.70;;;;;;4982794;28;20043;-84
2022/08/08 01:55:06;;;;;;;3.75;3.08;;;27.50;96.70;;;;;;4962165;28;20042;-84
2022/08/08 01:58:18;;;;;;;3.60;3.30;;;27.50;96.70;;;;;;4957224;28;20046;-82
2022/08/08 02:01:21;;;;;;;3.28;2.97;;;27.60;96.70;;;;;;4981491;28;20066;-84
2022/08/08 02:04:11;;;;;;;3.60;3.30;;;27.50;96.70;;;;;;4980580;28;20042;-89
2022/08/08 02:06:58;;;;;;;3.70;3.40;;;27.60;96.70;;;;;;4982698;28;20055;-89
2022/08/08 02:09:40;;;;;;;4.22;3.00;;;27.50;96.70;;;;;;4983014;28;20064;-89
2022/08/08 02:12:36;;;;;;;5.15;3.05;;;27.50;96.70;;;;;;4982852;28;20051;-89
2022/08/08 02:15:11;;;;;;;4.97;3.50;;;27.40;96.70;;;;;;4983924;28;20575;-90
2022/08/08 02:17:55;;;;;;;5.88;2.80;;;27.50;96.70;;;;;;4977191;28;20120;-89
2022/08/08 02:20:29;;;;;;;3.80;2.97;;;27.40;96.70;;;;;;4982171;28;20540;-88
2022/08/08 02:23:26;;;;;;;4.30;3.45;;;27.30;96.70;;;;;;4978651;28;20042;-88
2022/08/08 02:26:07;;;;;;;4.32;3.45;;;27.30;96.70;;;;;;4975090;28;20046;-89
2022/08/08 02:29:06;;;;;;;3.15;2.85;;;27.20;96.70;;;;;;4976576;28;20068;-84
2022/08/08 02:32:18;;;;;;;4.32;2.80;;;27.10;96.70;;;;;;4980771;28;20074;-82
2022/08/08 02:35:34;;;;;;;3.20;2.90;;;27.00;96.70;;;;;;4969336;28;20145;-83
2022/08/08 02:38:46;;;;;;;3.05;2.75;;;27.10;96.70;;;;;;4977576;28;20054;-83
2022/08/08 02:41:43;;;;;;;3.25;2.95;;;27.00;96.70;;;;;;4973105;28;20658;-83
2022/08/08 02:45:12;;;;;;;3.17;2.97;;;27.00;96.70;;;;;;4966863;28;20413;-83
2022/08/08 02:48:30;;;;;;;3.25;2.80;;;26.90;96.70;;;;;;4982014;28;20065;-82
2022/08/08 02:51:31;;;;;;;3.13;2.65;;;26.90;96.70;;;;;;4983533;28;20054;-84
2022/08/08 02:55:04;;;;;;;7.47;3.03;;;26.80;96.70;;;;;;4983252;28;20082;-83
2022/08/08 02:58:25;;;;;;;3.42;2.80;;;26.80;96.70;;;;;;4953412;28;20057;-83
2022/08/08 03:01:27;;;;;;;3.33;3.03;;;26.80;96.70;;;;;;4967215;28;20061;-83
2022/08/08 03:04:54;;;;;;;3.28;2.97;;;26.80;96.70;;;;;;4968295;28;20038;-83
2022/08/08 03:08:31;;;;;;;3.10;2.80;;;26.60;96.70;;;;;;4980843;28;20089;-82
2022/08/08 03:11:40;;;;;;;3.33;2.63;;;26.50;96.70;;;;;;4973001;28;20744;-82
2022/08/08 03:14:53;;;;;;;4.47;2.72;;;26.70;96.70;;;;;;4976184;28;20046;-84
2022/08/08 03:17:47;;;;;;;2.83;2.17;;;26.70;96.70;;;;;;4983026;28;20433;-83
2022/08/08 03:20:49;;;;;;;2.92;2.63;;;26.70;96.70;;;;;;4981950;28;20120;-84
2022/08/08 03:23:29;;;;;;;2.60;2.40;;;26.50;96.70;;;;;;4968902;28;20100;-83
2022/08/08 03:26:27;;;;;;;2.60;2.40;;;26.50;96.70;;;;;;4978727;28;20074;-82
2022/08/08 03:29:03;;;;;;;3.53;2.92;;;26.70;96.70;;;;;;4979768;28;20046;-83
2022/08/08 03:34:39;;;;;;;2.88;2.33;;;26.70;96.70;;;;;;4984890;28;20129;-88
2022/08/08 03:37:15;;;;;;;2.97;2.22;;;26.70;96.70;;;;;;4968441;28;20046;-89
2022/08/08 03:40:07;;;;;;;2.22;2.03;;;26.60;96.70;;;;;;4968062;28;20100;-89
2022/08/08 03:42:46;;;;;;;2.10;1.90;;;26.60;96.70;;;;;;4980735;28;20050;-88
2022/08/08 03:45:23;;;;;;;2.45;2.25;;;26.60;96.70;;;;;;4983269;28;20050;-88
2022/08/08 03:48:13;;;;;;;2.53;2.22;;;26.60;96.70;;;;;;4969032;28;20097;-83
2022/08/08 03:51:06;;;;;;;4.47;2.33;;;26.60;96.70;;;;;;4983212;28;20145;-84
2022/08/08 03:53:36;;;;;;;2.38;1.77;;;26.60;96.70;;;;;;4979594;28;20050;-84
2022/08/08 03:56:17;;;;;;;3.05;1.60;;;26.70;96.70;;;;;;4969394;28;20043;-84
2022/08/08 03:59:02;;;;;;;3.67;1.60;;;26.70;96.70;;;;;;4980650;28;20484;-83
2022/08/08 04:01:35;;;;;;;4.60;1.77;;;26.80;96.70;;;;;;4967585;28;20818;-84
2022/08/08 04:04:24;;;;;;;2.22;1.92;;;26.90;96.70;;;;;;4980150;28;20143;-84
2022/08/08 04:06:59;;;;;;;2.20;1.90;;;26.90;96.70;;;;;;4982457;28;20543;-82
2022/08/08 04:09:34;;;;;;;2.35;1.80;;;26.90;96.70;;;;;;4966563;28;20109;-83
2022/08/08 04:12:24;;;;;;;1.70;1.60;;;26.90;96.70;;;;;;4980565;28;20049;-84
2022/08/08 04:14:54;;;;;;;2.28;1.98;;;26.90;96.70;;;;;;4981721;28;20049;-83
2022/08/08 04:17:23;;;;;;;2.10;1.77;;;26.90;96.70;;;;;;4982824;28;20042;-84
2022/08/08 04:20:11;;;;;;;3.45;2.00;;;26.90;96.70;;;;;;4984860;28;20038;-83
2022/08/08 04:22:41;;;;;;;2.95;2.65;;;26.80;96.70;;;;;;4976406;28;20057;-84
2022/08/08 04:25:12;;;;;;;3.88;2.97;;;26.80;96.70;;;;;;4981751;28;20512;-84
2022/08/08 04:27:46;;;;;;;5.22;3.10;;;26.70;96.70;;;;;;4980312;28;20042;-83
2022/08/08 04:30:39;;;;;;;4.43;2.90;;;26.70;96.70;;;;;;4977431;28;20185;-83
2022/08/08 04:33:13;;;;;;;3.88;3.05;;;26.80;96.70;;;;;;4958599;28;20562;-84
2022/08/08 04:35:43;;;;;;;9.10;3.72;;;26.90;96.70;;;;;;4966534;28;20082;-84
2022/08/08 04:38:21;;;;;;;5.40;3.45;;;26.90;96.70;;;;;;4982001;28;20534;-85
2022/08/08 04:40:53;;;;;;;3.83;2.97;;;26.90;96.70;;;;;;4962593;28;20043;-84
2022/08/08 04:43:40;;;;;;;5.88;3.20;;;26.90;96.70;;;;;;4982351;28;20057;-83
2022/08/08 04:46:18;;;;;;;4.55;2.42;;;26.90;96.70;;;;;;4921807;29;20102;-85
2022/08/08 04:48:50;;;;;;;4.82;2.58;;;27.00;96.70;;;;;;4906299;29;20051;-84
2022/08/08 04:51:20;;;;;;;2.50;2.30;;;27.10;96.70;;;;;;4901132;29;20103;-84
2022/08/08 04:54:09;;;;;;;7.22;2.60;;;27.10;96.70;;;;;;4922038;29;20063;-84
2022/08/08 04:56:57;;;;;;;8.00;2.83;;;27.20;96.70;;;;;;4925890;29;20667;-84
2022/08/08 04:59:27;;;;;;;19.23;4.47;;;27.20;96.70;;;;;;4926268;29;20127;-83
2022/08/08 05:01:58;;;;;;;6.47;2.97;;;27.30;96.70;;;;;;4910480;29;20079;-84
2022/08/08 05:04:28;;;;;;;10.13;3.35;;;27.30;96.70;;;;;;4910440;29;20528;-83
2022/08/08 05:06:57;;;;;;;9.32;3.65;;;27.20;96.70;;;;;;4926248;29;20043;-83
2022/08/08 05:09:25;;;;;;;6.53;3.22;;;27.10;96.70;;;;;;4911283;29;20047;-84
2022/08/08 05:11:56;;;;;;;5.22;3.25;;;27.00;96.70;;;;;;4926585;29;20058;-82
2022/08/08 05:14:32;;;;;;;5.60;3.10;;;27.00;96.70;;;;;;4925984;29;20047;-83
2022/08/08 05:17:06;;;;;;;4.47;3.20;;;27.00;96.70;;;;;;4959280;28;20050;-82
2022/08/08 05:19:38;;;;;;;7.10;3.30;;;27.00;96.70;;;;;;4983051;28;20050;-83
2022/08/08 05:22:34;;;;;;;7.05;3.50;;;26.90;96.70;;;;;;4984341;28;20054;-84
2022/08/08 05:25:04;;;;;;;4.82;3.60;;;26.80;96.70;;;;;;4983879;28;20054;-83
2022/08/08 05:27:33;;;;;;;7.70;3.67;;;26.80;96.70;;;;;;4985436;28;20072;-85
2022/08/08 05:30:14;;;;;;;6.47;3.45;;;26.80;96.70;;;;;;4969311;28;20796;-83
2022/08/08 05:32:56;;;;;;;4.65;3.35;;;26.80;96.70;;;;;;4971100;28;20070;-84
2022/08/08 05:35:33;;;;;;;6.18;3.53;;;26.90;96.70;;;;;;4984845;28;20089;-84
2022/08/08 05:38:13;;;;;;;5.53;3.80;;;26.80;96.70;;;;;;4985436;28;20050;-84
2022/08/08 05:41:08;;;;;;;5.55;3.55;;;26.90;96.70;;;;;;4985044;28;20070;-84
2022/08/08 05:43:41;;;;;;;6.50;3.28;;;26.90;96.70;;;;;;4966884;28;20050;-82
2022/08/08 05:46:32;;;;;;;6.82;3.30;;;26.90;96.70;;;;;;4983637;28;20068;-84
2022/08/08 05:49:03;;;;;;;6.28;3.60;;;26.90;96.70;;;;;;4967928;28;20141;-84
2022/08/08 05:51:40;;;;;;;5.18;2.90;;;26.80;96.70;;;;;;4980622;28;20056;-83
2022/08/08 05:54:22;;;;;;;4.35;2.80;;;26.90;96.70;;;;;;4965694;28;20129;-84
2022/08/08 05:57:15;;;;;;;5.25;2.72;;;26.90;96.70;;;;;;4984035;28;20054;-84
2022/08/08 06:00:07;;;;;;;4.93;3.08;;;27.00;96.70;;;;;;4983833;28;20071;-84
2022/08/08 06:03:10;;;;;;;4.13;2.63;;;27.20;96.70;;;;;;4964958;28;20137;-83
2022/08/08 06:05:56;;;;;;;3.45;2.58;;;27.30;96.70;;;;;;4984583;28;20046;-83
2022/08/08 06:08:27;;;;;;;3.67;2.75;;;27.30;96.70;;;;;;4989853;28;20077;-83
2022/08/08 06:11:10;;;;;;;3.58;3.05;;;27.40;96.70;;;;;;4989163;28;20542;-83
2022/08/08 06:13:46;;;;;;;2.55;2.35;;;27.40;96.70;;;;;;4988522;28;20054;-84
2022/08/08 06:16:20;;;;;;;2.88;2.55;;;27.30;96.70;;;;;;4980389;28;20101;-83
2022/08/08 06:19:09;;;;;;;5.07;2.50;;;27.30;96.70;;;;;;4971799;28;20081;-83
2022/08/08 06:21:48;;;;;;;4.32;2.92;;;27.40;96.70;;;;;;4973870;28;20050;-83
2022/08/08 06:24:44;;;;;;;5.68;2.70;;;27.40;96.70;;;;;;4988656;28;20144;-83
2022/08/08 06:27:25;;;;;;;3.50;2.70;;;27.40;96.70;;;;;;4984823;28;20096;-84
2022/08/08 06:30:00;;;;;;;4.07;2.45;;;27.30;96.70;;;;;;4984590;28;20054;-83
2022/08/08 06:32:41;;;;;;;3.78;2.80;;;27.50;96.70;;;;;;4973130;28;20039;-83
2022/08/08 06:35:22;;;;;;;4.82;2.85;;;27.50;96.70;;;;;;4986166;28;20265;-83
2022/08/08 06:38:15;;;;;;;3.15;2.47;;;27.40;96.70;;;;;;4987026;28;20158;-84
2022/08/08 06:40:51;;;;;;;5.25;2.88;;;27.50;96.70;;;;;;4984409;28;21718;-78
2022/08/08 06:43:30;;;;;;;3.88;2.20;;;27.50;96.70;;;;;;4986433;28;20597;-76
2022/08/08 06:46:19;;;;;;;3.65;2.35;;;27.30;96.70;;;;;;4979819;28;20137;-78
2022/08/08 06:48:54;;;;;;;4.00;2.47;;;27.30;96.70;;;;;;4983061;28;20039;-80
2022/08/08 06:51:25;;;;;;;5.30;2.75;;;27.40;96.70;;;;;;4988471;28;20055;-81
2022/08/08 06:54:15;;;;;;;4.70;2.53;;;27.30;96.70;;;;;;4969487;28;20050;-83
2022/08/08 06:56:49;;;;;;;6.25;2.40;;;27.30;96.70;;;;;;4982587;28;20137;-83
2022/08/08 06:59:20;;;;;;;5.53;2.70;;;27.20;96.70;;;;;;4986074;28;20792;-83
2022/08/08 07:02:01;;;;;;;11.77;5.88;;;27.00;96.70;;;;;;4968222;28;20047;-79
2022/08/08 07:04:54;;;;;;;3.80;3.40;;;26.90;96.70;;;;;;4985325;28;20057;-80
2022/08/08 07:07:40;;;;;;;9.15;4.20;;;26.80;96.70;;;;;;4966924;28;20049;-81
2022/08/08 07:10:11;;;;;;;8.80;5.20;;;26.80;96.70;;;;;;4984319;28;20428;-81
2022/08/08 07:12:44;;;;;;;14.27;5.40;;;26.60;96.70;;;;;;4968173;28;20158;-84
2022/08/08 07:15:35;;;;;;;10.90;3.83;;;26.60;96.70;;;;;;4980685;28;20262;-85
2022/08/08 07:18:32;;;;;;;7.72;5.28;;;26.60;96.70;;;;;;4987105;28;20042;-87
2022/08/08 07:21:12;;;;;;;;;;;26.50;96.70;;;;;;4958449;28;20058;-83
2022/08/08 07:24:01;;;;;;;7.03;3.15;;;26.40;96.70;;;;;;4982175;28;19925;-81
2022/08/08 07:26:49;;;;;;;5.57;2.47;;;26.30;96.70;;;;;;4981924;28;20058;-80
2022/08/08 07:29:22;;;;;;;5.97;2.20;;;26.20;96.70;;;;;;4981944;28;20054;-81
2022/08/08 07:32:12;;;;;;;2.75;2.00;;;26.00;96.70;;;;;;4982785;28;20054;-80
2022/08/08 07:34:48;;;;;;;3.45;1.90;;;26.00;96.70;;;;;;4954147;28;20046;-84
2022/08/08 07:37:35;;;;;;;6.80;2.95;;;26.00;96.70;;;;;;4986915;28;20058;-84
2022/08/08 07:40:33;;;;;;;11.30;9.93;;;26.10;96.70;;;;;;4987095;28;20053;-84
2022/08/08 07:43:08;;;;;;;6.57;3.42;;;26.20;96.70;;;;;;4984462;28;20050;-79
2022/08/08 07:45:44;;;;;;;6.82;4.18;;;26.20;96.70;;;;;;4967810;28;20050;-79
2022/08/08 07:48:35;;;;;;;4.65;2.92;;;26.30;96.70;;;;;;4986026;28;20041;-81
2022/08/08 07:51:04;;;;;;;4.38;2.78;;;26.30;96.70;;;;;;4984129;28;20050;-80
2022/08/08 07:54:05;;;;;;;4.45;2.50;;;26.40;96.70;;;;;;4969486;28;20054;-82
2022/08/08 07:56:48;;;;;;;4.32;2.65;;;26.50;96.70;;;;;;4984806;28;20069;-83
2022/08/08 07:59:21;;;;;;;3.75;2.20;;;26.70;96.70;;;;;;4980689;28;20143;-86
2022/08/08 08:01:57;;;;;;;3.55;2.30;;;26.70;96.70;;;;;;4991419;28;20061;-83
2022/08/08 08:04:52;;;;;;;4.18;2.40;;;26.50;96.70;;;;;;4970245;28;20054;-86
2022/08/08 08:07:22;;;;;;;7.05;2.28;;;26.50;96.70;;;;;;4985538;28;20041;-87
2022/08/08 08:10:03;;;;;;;4.07;2.33;;;26.70;96.70;;;;;;4986255;28;20775;-86
2022/08/08 08:12:36;;;;;;;6.05;1.80;;;27.00;96.70;;;;;;4987136;28;20062;-86
2022/08/08 08:15:18;;;;;;;5.28;2.45;;;27.10;96.70;;;;;;4988908;28;20473;-85
2022/08/08 08:17:58;;;;;;;3.05;2.30;;;27.20;96.70;;;;;;4986146;28;20416;-79
2022/08/08 08:20:29;;;;;;;2.97;2.08;;;27.40;96.70;;;;;;4978828;28;20420;-79
2022/08/08 08:23:02;;;;;;;3.05;2.03;;;27.60;96.70;;;;;;4981230;28;20223;-78
2022/08/08 08:25:30;;;;;;;2.60;2.03;;;27.80;96.70;;;;;;4982895;28;20574;-78
2022/08/08 08:28:14;;;;;;;3.35;2.30;;;28.10;96.70;;;;;;4981386;28;20074;-78
2022/08/08 08:30:53;;;;;;;4.32;2.38;;;28.20;96.70;;;;;;4985860;28;20050;-78
2022/08/08 08:33:25;;;;;;;2.72;2.53;;;28.40;96.70;;;;;;4981414;28;20050;-78
2022/08/08 08:35:54;;;;;;;2.78;2.35;;;28.60;96.70;;;;;;4984355;28;20081;-77
2022/08/08 08:38:43;;;;;;;3.92;2.92;;;28.70;96.70;;;;;;4976901;28;20043;-78
2022/08/08 08:41:24;;;;;;;2.90;2.60;;;28.80;96.70;;;;;;4980639;28;20154;-80
2022/08/08 08:44:05;;;;;;;3.85;2.70;;;28.80;96.70;;;;;;4985113;28;20501;-86
2022/08/08 08:46:44;;;;;;;3.88;2.35;;;28.90;96.70;;;;;;4968223;28;20066;-80
2022/08/08 08:49:26;;;;;;;2.97;2.42;;;29.00;96.70;;;;;;4964106;28;20079;-79
2022/08/08 08:52:04;;;;;;;3.47;2.70;;;29.20;96.70;;;;;;4967183;28;20079;-82
2022/08/08 08:54:35;;;;;;;5.93;2.80;;;29.30;96.70;;;;;;4961650;28;20056;-81
2022/08/08 08:57:09;;;;;;;5.63;2.38;;;29.50;96.70;;;;;;4958052;28;20047;-80
2022/08/08 09:00:00;;;;;;;4.63;2.35;;;29.60;96.70;;;;;;4962895;28;20497;-82
2022/08/08 09:02:40;;;;;;;3.28;2.50;;;29.50;96.70;;;;;;4952009;28;20094;-87
2022/08/08 09:05:13;;;;;;;3.20;2.53;;;29.40;96.70;;;;;;4964698;28;20537;-85
2022/08/08 09:08:05;;;;;;;2.67;2.47;;;29.40;96.70;;;;;;4949175;28;20477;-86
2022/08/08 09:10:47;;;;;;;2.33;2.00;;;29.40;96.70;;;;;;4971712;28;20086;-87
2022/08/08 09:13:21;;;;;;;2.75;2.45;;;29.40;96.70;;;;;;4946352;28;20146;-86
2022/08/08 09:15:59;;;;;;;3.08;2.50;;;29.40;96.70;;;;;;4957180;28;20150;-86
2022/08/08 09:18:34;;;;;;;4.47;2.15;;;29.60;96.70;;;;;;4971753;28;20038;-87
2022/08/08 09:21:05;;;;;;;3.63;2.63;;;29.80;96.70;;;;;;4967314;28;20050;-84
2022/08/08 09:23:55;;;;;;;5.25;2.15;;;30.00;96.70;;;;;;4975612;28;20401;-85
2022/08/08 09:26:42;;;;;;;3.50;2.20;;;30.20;96.70;;;;;;4964526;28;20059;-87
2022/08/08 09:29:21;;;;;;;4.30;2.08;;;30.40;96.70;;;;;;4964278;28;20058;-86
2022/08/08 09:32:03;;;;;;;2.42;2.22;;;30.50;96.70;;;;;;4960166;28;20051;-88
2022/08/08 09:34:53;;;;;;;4.45;2.67;;;30.60;96.70;;;;;;4961651;28;20787;-87
2022/08/08 09:37:29;;;;;;;3.03;2.50;;;30.60;96.70;;;;;;4949503;28;20051;-86
2022/08/08 09:40:25;;;;;;;;;;;30.80;96.70;;;;;;4964743;28;20149;-87
2022/08/08 09:43:19;;;;;;;2.72;2.53;;;30.90;96.70;;;;;;4967923;28;20017;-85
2022/08/08 09:45:59;;;;;;;6.13;2.40;;;31.00;96.70;;;;;;4959498;28;20134;-86
2022/08/08 09:48:34;;;;;;;2.47;2.28;;;31.00;96.70;;;;;;4960157;28;20079;-93
2022/08/08 09:51:13;;;;;;;4.00;2.38;;;31.10;96.70;;;;;;4954105;28;20066;-87
2022/08/08 09:53:51;;;;;;;2.65;2.45;;;31.20;96.70;;;;;;4967677;28;20044;-94
2022/08/08 09:56:46;;;;;;;4.00;2.15;;;31.30;96.70;;;;;;4947593;29;20043;-91
2022/08/08 09:59:24;;;;;;;4.00;3.72;;;31.40;96.70;;;;;;4957255;28;20043;-85
2022/08/08 10:02:31;;;;;;;43.70;39.15;;;31.50;96.70;;;;;;4945574;29;20051;-85
2022/08/08 10:05:06;;;;;;;4.63;4.22;;;31.60;96.70;;;;;;4964766;28;20186;-86
2022/08/08 10:07:54;;;;;;;4.63;3.85;;;31.30;96.70;;;;;;4944161;28;20046;-89
2022/08/08 10:10:29;;;;;;;4.60;3.28;;;31.50;96.70;;;;;;4965211;28;20046;-82
2022/08/08 10:13:00;;;;;;;2.95;2.75;;;31.40;96.70;;;;;;4959747;28;20062;-84
2022/08/08 10:15:45;;;;;;;5.43;4.30;;;31.60;96.70;;;;;;4951642;28;20431;-83
2022/08/08 10:18:30;;;;;;;4.82;3.53;;;31.70;96.70;;;;;;4949661;29;20082;-84
2022/08/08 10:21:06;;;;;;;4.03;3.63;;;32.00;96.70;;;;;;4965151;28;20138;-81
2022/08/08 10:24:01;;;;;;;3.40;3.03;;;32.10;96.70;;;;;;4961115;28;20473;-81
2022/08/08 10:26:34;;;;;;;3.42;3.13;;;32.20;96.70;;;;;;4965321;28;20052;-89
2022/08/08 10:29:44;;;;;;;3.15;2.83;;;32.30;96.70;;;;;;4958100;28;20053;-93
2022/08/08 10:32:36;;;;;;;4.93;2.95;;;32.40;96.70;;;;;;4951306;28;20039;-89
2022/08/08 10:35:12;;;;;;;2.97;2.70;;;32.40;96.70;;;;;;4948443;29;20135;-94
2022/08/08 10:38:04;;;;;;;2.42;2.13;;;32.70;96.70;;;;;;4950926;28;20617;-90
2022/08/08 10:40:37;;;;;;;2.80;2.60;;;32.80;96.70;;;;;;4949513;29;20056;-90
2022/08/08 10:43:09;;;;;;;2.90;1.80;;;32.90;96.70;;;;;;4938289;28;20051;-89
2022/08/08 10:45:45;;;;;;;2.95;2.13;;;32.70;96.40;;;;;;4958379;28;20133;-86
2022/08/08 10:48:33;;;;;;;2.30;2.10;;;32.80;95.00;;;;;;4968975;28;20497;-84
2022/08/08 10:51:22;;;;;;;2.70;2.50;;;33.10;95.30;;;;;;4985127;28;20485;-85
2022/08/08 10:53:58;;;;;;;2.10;1.92;;;33.30;94.30;;;;;;4985578;28;20141;-89
2022/08/08 10:56:33;;;;;;;1.85;1.75;;;33.60;93.40;;;;;;4966301;28;20051;-91
2022/08/08 10:59:08;;;;;;;2.50;2.30;;;33.70;92.30;;;;;;4978257;28;20050;-86
2022/08/08 11:01:40;;;;;;;1.63;1.52;;;34.00;91.60;;;;;;4963363;28;20050;-84
2022/08/08 11:04:12;;;;;;;2.47;2.33;;;34.40;90.70;;;;;;4983515;28;20058;-85
2022/08/08 11:06:42;;;;;;;2.63;2.40;;;34.50;88.90;;;;;;4979779;28;20039;-78
2022/08/08 11:09:18;;;;;;;3.08;2.88;;;34.50;89.20;;;;;;4980794;28;20075;-80
2022/08/08 11:11:52;;;;;;;2.55;2.45;;;34.70;89.00;;;;;;4978440;28;20334;-82
2022/08/08 11:14:51;;;;;;;6.35;5.93;;;35.00;88.90;;;;;;4981574;28;20054;-83
2022/08/08 11:17:22;;;;;;;2.42;2.22;;;35.00;88.70;;;;;;4976624;28;20063;-85
2022/08/08 11:20:13;;;;;;;2.35;2.20;;;35.00;88.60;;;;;;4983744;28;20050;-86
2022/08/08 11:22:50;;;;;;;3.47;1.88;;;34.70;88.80;;;;;;4984420;28;20052;-90
2022/08/08 11:25:24;;;;;;;1.80;1.70;;;34.60;88.80;;;;;;4985083;28;20062;-89
2022/08/08 11:28:14;;;;;;;1.70;1.60;;;34.50;89.80;;;;;;4983076;28;20050;-90
2022/08/08 11:30:48;;;;;;;1.70;1.60;;;34.50;89.60;;;;;;4968596;28;20054;-89
2022/08/08 11:33:24;;;;;;;1.77;1.52;;;34.60;88.80;;;;;;4985492;28;20054;-89
2022/08/08 11:36:14;;;;;;;2.33;1.58;;;34.50;88.30;;;;;;4968355;28;20133;-89
2022/08/08 11:38:45;;;;;;;1.70;1.60;;;34.30;89.00;;;;;;4969414;28;20050;-88
2022/08/08 11:41:25;;;;;;;1.95;1.40;;;34.30;89.20;;;;;;4969232;28;20157;-89
2022/08/08 11:44:01;;;;;;;2.42;1.20;;;34.10;87.60;;;;;;4975462;28;20074;-89
2022/08/08 11:46:33;;;;;;;1.40;1.27;;;33.90;88.10;;;;;;4984826;28;20087;-88
2022/08/08 11:49:08;;;;;;;1.52;1.42;;;34.00;88.20;;;;;;4985082;28;20109;-88
2022/08/08 11:51:38;;;;;;;2.92;2.65;;;34.20;86.90;;;;;;4966722;28;20093;-89
2022/08/08 11:54:30;;;;;;;2.83;1.63;;;34.70;86.50;;;;;;4981242;28;20051;-89
2022/08/08 11:57:18;;;;;;;1.48;1.38;;;34.70;86.10;;;;;;4969730;28;20045;-88
2022/08/08 11:59:56;;;;;;;1.52;1.42;;;34.30;86.50;;;;;;4963770;28;20077;-88
2022/08/08 12:02:47;;;;;;;2.10;1.33;;;34.60;86.40;;;;;;4981880;28;20053;-89
2022/08/08 12:05:30;;;;;;;1.40;1.30;;;34.90;86.40;;;;;;4981881;28;20413;-88
2022/08/08 12:08:01;;;;;;;1.30;1.17;;;34.90;86.00;;;;;;4981710;28;20034;-89
2022/08/08 12:10:31;;;;;;;1.58;1.48;;;34.60;85.60;;;;;;4969457;28;20046;-89
2022/08/08 12:13:04;;;;;;;2.75;1.50;;;34.50;85.50;;;;;;4966273;28;20138;-88
2022/08/08 12:15:35;;;;;;;3.25;2.95;;;34.70;84.40;;;;;;4969979;28;20394;-88
2022/08/08 12:18:16;;;;;;;1.58;1.48;;;34.90;84.70;;;;;;4965631;28;20051;-88
2022/08/08 12:20:52;;;;;;;2.40;1.55;;;35.20;83.90;;;;;;4968543;28;20050;-89
2022/08/08 12:23:29;;;;;;;1.52;1.42;;;35.30;84.00;;;;;;4968185;28;20265;-88
2022/08/08 12:26:22;;;;;;;1.60;1.50;;;35.50;84.20;;;;;;4981994;28;20043;-89
2022/08/08 12:29:21;;;;;;;2.75;1.67;;;35.40;84.40;;;;;;4964885;28;20568;-88
2022/08/08 12:32:09;;;;;;;1.85;1.75;;;35.20;84.90;;;;;;4962130;28;20051;-89
2022/08/08 12:35:00;;;;;;;4.07;3.78;;;35.60;84.90;;;;;;4982742;28;20070;-88
2022/08/08 12:37:46;;;;;;;3.72;2.58;;;35.80;83.90;;;;;;4981402;28;20059;-87
2022/08/08 12:40:38;;;;;;;2.03;1.83;;;36.00;82.70;;;;;;4982567;28;20135;-88
2022/08/08 12:43:30;;;;;;;3.25;2.40;;;36.10;83.20;;;;;;4984160;28;20047;-88
2022/08/08 12:46:16;;;;;;;2.20;1.75;;;36.20;82.60;;;;;;4981400;28;20059;-88
2022/08/08 12:48:55;;;;;;;2.40;1.95;;;36.40;83.10;;;;;;4977722;28;20094;-87
2022/08/08 12:51:44;;;;;;;2.28;1.48;;;36.20;82.40;;;;;;4970808;28;20137;-87
2022/08/08 12:54:28;;;;;;;2.28;1.77;;;36.10;82.00;;;;;;4984056;28;20051;-88
2022/08/08 12:57:11;;;;;;;1.95;1.85;;;35.90;82.20;;;;;;4983760;28;20088;-88
2022/08/08 12:59:50;;;;;;;1.40;1.30;;;35.90;82.40;;;;;;4983610;28;20631;-86
2022/08/08 13:02:41;;;;;;;2.13;1.50;;;35.70;83.20;;;;;;4980477;28;20547;-90
2022/08/08 13:05:21;;;;;;;2.55;1.45;;;35.60;82.60;;;;;;4977887;28;20130;-90
2022/08/08 13:08:17;;;;;;;1.60;1.50;;;35.50;82.40;;;;;;4974740;28;20481;-89
2022/08/08 13:10:52;;;;;;;1.27;1.17;;;35.40;81.80;;;;;;4984052;28;20118;-89
2022/08/08 13:13:29;;;;;;;1.45;1.33;;;35.40;81.60;;;;;;4983804;28;20231;-88
2022/08/08 13:16:18;;;;;;;1.52;1.42;;;35.60;82.90;;;;;;4954389;28;20158;-87
2022/08/08 13:18:49;;;;;;;14.65;13.20;;;35.70;81.80;;;;;;4987707;28;20101;-86
2022/08/08 13:21:30;;;;;;;4.10;3.65;;;36.10;82.20;;;;;;4987298;28;20047;-88
2022/08/08 13:24:20;;;;;;;4.85;3.22;;;36.50;80.80;;;;;;4984614;28;20054;-89
2022/08/08 13:27:10;;;;;;;2.55;1.75;;;36.90;80.60;;;;;;4968553;28;20046;-87
2022/08/08 13:29:48;;;;;;;2.20;1.60;;;37.10;80.10;;;;;;4987787;28;20078;-87
2022/08/08 13:32:18;;;;;;;2.30;2.20;;;37.30;80.20;;;;;;4972618;28;20429;-85
2022/08/08 13:34:53;;;;;;;3.58;2.22;;;37.50;80.30;;;;;;4984215;28;20066;-87
2022/08/08 13:37:24;;;;;;;3.05;2.10;;;37.70;81.40;;;;;;4986703;28;20110;-85
2022/08/08 13:40:15;;;;;;;2.70;2.30;;;37.80;81.90;;;;;;4966453;28;20644;-86
2022/08/08 13:42:55;;;;;;;1.90;1.80;;;37.50;82.10;;;;;;4971026;28;20055;-89
2022/08/08 13:45:25;;;;;;;1.98;1.77;;;37.10;83.70;;;;;;4985199;28;20062;-87
2022/08/08 13:47:58;;;;;;;2.42;1.98;;;36.90;83.70;;;;;;4956249;28;20111;-95
2022/08/08 13:50:32;;;;;;;2.60;2.00;;;36.70;83.60;;;;;;4978942;28;20062;-89
2022/08/08 13:53:26;;;;;;;2.03;1.83;;;36.40;84.80;;;;;;4948641;28;20051;-90
2022/08/08 13:56:06;;;;;;;2.10;2.00;;;36.00;85.80;;;;;;4978280;28;20047;-93
2022/08/08 13:58:49;;;;;;;2.72;2.10;;;36.50;85.80;;;;;;4972082;28;20051;-95
2022/08/08 14:01:28;;;;;;;4.10;2.13;;;36.70;85.00;;;;;;4976589;28;20083;-92
2022/08/08 14:04:21;;;;;;;2.20;2.00;;;36.40;85.30;;;;;;4959417;28;20054;-92
2022/08/08 14:07:02;;;;;;;3.55;2.10;;;35.80;86.00;;;;;;4977910;28;20054;-92
2022/08/08 14:09:33;;;;;;;2.25;2.05;;;35.70;87.10;;;;;;4965512;28;20046;-85
2022/08/08 14:12:25;;;;;;;2.25;2.05;;;35.60;86.80;;;;;;4974633;28;20042;-85
2022/08/08 14:14:55;;;;;;;2.10;1.90;;;35.40;87.50;;;;;;4949945;28;20723;-86
2022/08/08 14:17:24;;;;;;;2.10;1.90;;;35.20;87.50;;;;;;4957686;28;20043;-93
2022/08/08 14:20:13;;;;;;;2.13;2.00;;;35.10;88.70;;;;;;4969845;28;20125;-93
2022/08/08 14:23:10;;;;;;;2.50;2.13;;;35.00;88.40;;;;;;4970608;28;20062;-91
2022/08/08 14:25:59;;;;;;;2.35;2.15;;;34.70;88.30;;;;;;4952614;28;20051;-89